Terminal Aerodrome Forecast
Issued by NWS

Current Version | Previous Version | Text Only | Print | Product List | Glossary On
Versions: 1 2 3 4 5 6 7 8 9 10 11 12 13
000
FTUS43 KAPX 260520
TAFMBL
TAF
KMBL 260520Z 2606/2706 11005KT P6SM FEW050 BKN250
     FM261300 14009KT P6SM OVC100
     FM261500 15011G23KT P6SM VCSH OVC040
     FM261900 18012G24KT P6SM BKN025=

USA.gov is the U.S. government's official web portal to all federal, state and local government web resources and services.